createdAt,value
2023-05-07T00:00:16.838Z,18.05
2023-05-07T00:02:44.030Z,20.10
2023-05-07T00:05:10.774Z,19.27
2023-05-07T00:07:37.653Z,22.85
2023-05-07T00:10:05.387Z,19.20
2023-05-07T00:12:37.040Z,20.77
2023-05-07T00:15:05.495Z,19.75
2023-05-07T00:17:32.064Z,19.42
2023-05-07T00:20:00.682Z,19.23
2023-05-07T00:22:30.850Z,21.85
2023-05-07T00:24:57.482Z,20.08
2023-05-07T00:27:25.481Z,21.33
2023-05-07T00:29:52.873Z,18.25
2023-05-07T00:32:19.624Z,22.75
2023-05-07T00:34:46.418Z,19.70
2023-05-07T00:37:13.418Z,20.40
2023-05-07T00:39:40.014Z,19.13
2023-05-07T00:42:06.531Z,21.60
2023-05-07T00:44:33.069Z,22.83
2023-05-07T00:47:04.505Z,21.27
2023-05-07T00:49:40.783Z,18.92
2023-05-07T00:52:10.514Z,21.83
2023-05-07T00:54:37.394Z,19.30
2023-05-07T00:57:04.964Z,18.30
2023-05-07T00:59:34.931Z,18.23
2023-05-07T01:02:01.874Z,23.88
2023-05-07T01:04:28.372Z,19.83
2023-05-07T01:07:01.072Z,20.35
2023-05-07T01:09:29.232Z,18.38
2023-05-07T01:11:58.414Z,22.10
2023-05-07T01:14:26.780Z,19.38
2023-05-07T01:16:54.469Z,19.77
2023-05-07T01:19:21.003Z,18.63
2023-05-07T01:21:56.820Z,18.90
2023-05-07T01:24:23.452Z,21.38
2023-05-07T01:26:51.272Z,17.60
2023-05-07T01:29:19.685Z,17.85
2023-05-07T01:31:48.807Z,20.83
2023-05-07T01:34:18.270Z,17.27
2023-05-07T01:36:45.723Z,20.70
2023-05-07T01:39:13.302Z,16.90
2023-05-07T01:41:40.184Z,21.10
2023-05-07T01:44:07.194Z,18.95
2023-05-07T01:46:34.359Z,19.88
2023-05-07T01:49:02.242Z,19.15
2023-05-07T01:51:29.617Z,17.25
2023-05-07T01:53:58.585Z,18.48
2023-05-07T01:56:26.082Z,20.35
2023-05-07T01:58:56.506Z,23.30
2023-05-07T02:01:23.181Z,19.27
2023-05-07T02:03:51.083Z,18.13
2023-05-07T02:06:17.730Z,17.98
2023-05-07T02:08:44.285Z,17.00
2023-05-07T02:11:11.293Z,16.63
2023-05-07T02:13:37.935Z,17.75
2023-05-07T02:16:07.850Z,17.20
2023-05-07T02:18:34.489Z,15.77
2023-05-07T02:21:02.056Z,16.83
2023-05-07T02:23:29.006Z,16.40
2023-05-07T02:25:55.577Z,17.85
2023-05-07T02:28:22.124Z,20.98
2023-05-07T02:30:48.859Z,15.23
2023-05-07T02:33:18.813Z,15.48
2023-05-07T02:35:45.511Z,15.85
2023-05-07T02:38:11.990Z,18.00
2023-05-07T02:40:41.990Z,17.00
2023-05-07T02:43:09.902Z,17.58
2023-05-07T02:45:38.991Z,17.45
2023-05-07T02:48:07.285Z,14.95
2023-05-07T02:50:34.313Z,16.77
2023-05-07T02:53:02.015Z,18.65
2023-05-07T02:55:29.796Z,18.33
2023-05-07T02:57:59.017Z,15.18
2023-05-07T03:00:26.319Z,17.20
2023-05-07T03:02:53.129Z,16.63
2023-05-07T03:05:21.970Z,16.95
2023-05-07T03:07:52.847Z,14.18
2023-05-07T03:10:19.717Z,13.85
2023-05-07T03:12:46.372Z,15.95
2023-05-07T03:15:16.001Z,14.05
2023-05-07T03:17:43.164Z,13.77
2023-05-07T03:20:11.232Z,17.33
2023-05-07T03:22:38.243Z,15.23
2023-05-07T03:25:07.127Z,12.27
2023-05-07T03:27:33.981Z,15.70
2023-05-07T03:30:01.323Z,13.07
2023-05-07T03:32:29.531Z,14.48
2023-05-07T03:34:59.468Z,16.55
2023-05-07T03:37:27.262Z,18.58
2023-05-07T03:39:54.522Z,16.00
2023-05-07T03:42:22.215Z,14.88
2023-05-07T03:44:49.428Z,15.07
2023-05-07T03:47:16.214Z,13.57
2023-05-07T03:49:42.723Z,14.93
2023-05-07T03:52:12.825Z,14.15
2023-05-07T03:54:39.311Z,14.20
2023-05-07T03:57:05.970Z,15.20
2023-05-07T03:59:33.310Z,11.05
2023-05-07T04:02:05.554Z,15.75
2023-05-07T04:04:34.125Z,14.32
2023-05-07T04:07:01.536Z,14.13
2023-05-07T04:09:28.088Z,12.48
2023-05-07T04:11:54.658Z,13.60
2023-05-07T04:14:23.637Z,13.52
2023-05-07T04:16:50.535Z,12.95
2023-05-07T04:19:17.740Z,12.27
2023-05-07T04:21:44.382Z,13.73
2023-05-07T04:24:10.820Z,13.23
2023-05-07T04:26:37.554Z,13.52
2023-05-07T04:29:04.858Z,14.52
2023-05-07T04:31:33.049Z,14.90
2023-05-07T04:34:02.824Z,13.00
2023-05-07T04:36:30.380Z,16.08
2023-05-07T04:38:56.901Z,12.65
2023-05-07T04:41:23.673Z,12.35
2023-05-07T04:43:50.759Z,12.40
2023-05-07T04:46:17.672Z,13.75
2023-05-07T04:48:44.219Z,11.40
2023-05-07T04:51:12.316Z,12.93
2023-05-07T04:53:39.314Z,13.05
2023-05-07T04:56:07.597Z,11.88
2023-05-07T04:58:34.357Z,13.40
2023-05-07T05:01:03.680Z,18.15
2023-05-07T05:03:33.742Z,12.48
2023-05-07T05:06:03.804Z,12.80
2023-05-07T05:08:31.343Z,15.32
2023-05-07T05:10:58.032Z,11.80
2023-05-07T05:13:31.306Z,13.48
2023-05-07T05:15:59.030Z,12.95
2023-05-07T05:18:25.541Z,12.63
2023-05-07T05:20:52.811Z,13.15
2023-05-07T05:23:21.061Z,13.55
2023-05-07T05:25:50.502Z,13.52
2023-05-07T05:28:17.028Z,11.30
2023-05-07T05:30:44.589Z,12.18
2023-05-07T05:33:11.598Z,12.50
2023-05-07T05:35:38.533Z,11.55
2023-05-07T05:38:06.747Z,12.98
2023-05-07T05:40:34.304Z,13.35
2023-05-07T05:43:01.103Z,10.27
2023-05-07T05:45:32.696Z,11.25
2023-05-07T05:50:27.140Z,10.88
2023-05-07T05:52:53.631Z,11.82
2023-05-07T05:55:21.139Z,10.75
2023-05-07T05:57:49.369Z,10.95
2023-05-07T06:00:16.959Z,9.70
2023-05-07T06:02:46.806Z,11.63
2023-05-07T06:05:13.492Z,10.93
2023-05-07T06:07:40.318Z,11.25
2023-05-07T06:10:07.730Z,10.73
2023-05-07T06:12:34.243Z,12.20
2023-05-07T06:15:00.815Z,12.90
2023-05-07T06:17:27.393Z,12.75
2023-05-07T06:19:54.221Z,10.20
2023-05-07T06:22:21.828Z,9.68
2023-05-07T06:24:50.824Z,11.18
2023-05-07T06:27:17.343Z,9.82
2023-05-07T06:29:43.891Z,11.65
2023-05-07T06:32:12.005Z,10.57
2023-05-07T06:34:39.720Z,9.27
2023-05-07T06:37:06.919Z,10.32
2023-05-07T06:39:34.725Z,8.45
2023-05-07T06:42:03.240Z,10.90
2023-05-07T06:44:29.722Z,8.98
2023-05-07T06:46:56.214Z,8.95
2023-05-07T06:49:22.827Z,8.23
2023-05-07T06:51:49.454Z,9.80
2023-05-07T06:54:18.043Z,9.35
2023-05-07T06:56:45.904Z,8.60
2023-05-07T06:59:14.685Z,8.70
2023-05-07T07:01:41.534Z,10.05
2023-05-07T07:04:09.844Z,8.75
2023-05-07T07:06:36.615Z,9.38
2023-05-07T07:09:03.905Z,9.38
2023-05-07T07:11:31.156Z,10.20
2023-05-07T07:14:02.366Z,9.05
2023-05-07T07:18:57.596Z,10.32
2023-05-07T07:21:24.092Z,7.55
2023-05-07T07:23:52.425Z,8.68
2023-05-07T07:26:19.707Z,10.18
2023-05-07T07:28:48.005Z,7.00
2023-05-07T07:31:15.176Z,7.38
2023-05-07T07:33:41.894Z,7.55
2023-05-07T07:36:10.483Z,6.90
2023-05-07T07:38:37.014Z,8.23
2023-05-07T07:41:04.105Z,7.53
2023-05-07T07:43:31.078Z,6.60
2023-05-07T07:45:57.565Z,7.05
2023-05-07T07:48:24.218Z,7.25
2023-05-07T07:50:52.246Z,7.25
2023-05-07T07:53:20.598Z,6.50
2023-05-07T07:55:48.362Z,5.97
2023-05-07T07:58:16.840Z,7.82
2023-05-07T08:00:43.305Z,6.10
2023-05-07T08:03:12.131Z,7.18
2023-05-07T08:05:41.745Z,7.40
2023-05-07T08:08:11.503Z,6.60
2023-05-07T08:10:40.376Z,6.30
2023-05-07T08:13:07.134Z,7.20
2023-05-07T08:15:33.875Z,8.43
2023-05-07T08:18:01.436Z,7.72
2023-05-07T08:20:29.130Z,6.85
2023-05-07T08:22:57.448Z,8.10
2023-05-07T08:25:24.105Z,6.43
2023-05-07T08:27:50.664Z,6.18
2023-05-07T08:30:17.687Z,6.15
2023-05-07T08:32:44.926Z,6.43
2023-05-07T08:35:11.720Z,6.70
2023-05-07T08:37:38.246Z,5.70
2023-05-07T08:40:06.738Z,6.55
2023-05-07T08:45:14.283Z,6.95
2023-05-07T08:47:47.665Z,5.72
2023-05-07T08:50:16.493Z,6.53
2023-05-07T08:52:44.317Z,6.05
2023-05-07T08:55:15.528Z,6.03
2023-05-07T08:57:43.110Z,5.63
2023-05-07T09:00:11.873Z,6.25
2023-05-07T09:02:38.891Z,8.52
2023-05-07T09:05:08.000Z,7.78
2023-05-07T09:07:35.080Z,6.07
2023-05-07T09:10:06.597Z,7.10
2023-05-07T09:12:33.448Z,5.95
2023-05-07T09:15:00.331Z,6.50
2023-05-07T09:17:26.870Z,8.75
2023-05-07T09:19:54.702Z,8.32
2023-05-07T09:22:21.492Z,9.90
2023-05-07T09:24:53.399Z,5.93
2023-05-07T09:27:20.121Z,7.13
2023-05-07T09:29:50.620Z,8.82
2023-05-07T09:32:18.725Z,7.97
2023-05-07T09:34:46.300Z,9.75
2023-05-07T09:37:14.220Z,8.88
2023-05-07T09:39:47.478Z,6.43
2023-05-07T09:42:17.524Z,5.80
2023-05-07T09:44:48.054Z,6.53
2023-05-07T09:47:22.968Z,5.85
2023-05-07T09:49:49.670Z,7.00
2023-05-07T09:52:17.664Z,5.40
2023-05-07T09:54:45.039Z,8.07
2023-05-07T09:57:18.042Z,8.05
2023-05-07T09:59:45.129Z,6.97
2023-05-07T10:02:13.320Z,5.38
2023-05-07T10:04:46.739Z,4.47
2023-05-07T10:07:16.216Z,5.20
2023-05-07T10:09:45.516Z,5.22
2023-05-07T10:12:12.242Z,7.10
2023-05-07T10:14:39.171Z,6.75
2023-05-07T10:17:07.244Z,5.88
2023-05-07T10:19:37.513Z,7.13
2023-05-07T10:22:10.334Z,7.63
2023-05-07T10:24:38.172Z,5.30
2023-05-07T10:27:11.891Z,6.40
2023-05-07T10:29:48.836Z,5.90
2023-05-07T10:34:48.276Z,4.93
2023-05-07T10:37:16.040Z,4.90
2023-05-07T10:39:43.066Z,5.45
2023-05-07T10:42:14.670Z,4.90
2023-05-07T10:44:43.868Z,5.00
2023-05-07T10:47:13.614Z,7.13
2023-05-07T10:49:49.814Z,5.82
2023-05-07T10:52:22.100Z,4.43
2023-05-07T10:54:58.647Z,5.70
2023-05-07T10:57:37.854Z,5.13
2023-05-07T11:00:05.395Z,5.47
2023-05-07T11:03:09.415Z,5.85
2023-05-07T11:05:40.605Z,5.53
2023-05-07T11:08:10.347Z,5.80
2023-05-07T11:10:57.756Z,4.88
2023-05-07T11:13:46.285Z,4.43
2023-05-07T11:16:22.966Z,4.15
2023-05-07T11:18:52.616Z,5.53
2023-05-07T11:21:41.463Z,5.70
2023-05-07T11:24:09.875Z,5.25
2023-05-07T11:26:50.733Z,6.18
2023-05-07T11:29:23.180Z,4.57
2023-05-07T11:31:54.791Z,5.53
2023-05-07T11:34:25.894Z,4.90
2023-05-07T11:36:54.758Z,5.00
2023-05-07T11:39:25.239Z,5.15
2023-05-07T11:41:53.839Z,4.90
2023-05-07T11:44:22.135Z,4.47
2023-05-07T11:46:50.124Z,6.13
2023-05-07T11:49:22.159Z,6.43
2023-05-07T11:51:54.874Z,5.10
2023-05-07T11:54:24.833Z,6.82
2023-05-07T11:56:51.540Z,7.07
2023-05-07T11:59:19.340Z,5.68
2023-05-07T12:01:55.193Z,4.70
2023-05-07T12:04:22.559Z,4.72
2023-05-07T12:06:51.392Z,5.75
2023-05-07T12:09:18.173Z,5.55
2023-05-07T12:11:47.348Z,4.90
2023-05-07T12:14:17.067Z,6.78
2023-05-07T12:16:44.831Z,6.65
2023-05-07T12:19:16.367Z,4.50
2023-05-07T12:21:43.670Z,5.18
2023-05-07T12:24:11.591Z,5.32
2023-05-07T12:26:41.908Z,4.35
2023-05-07T12:29:11.012Z,6.10
2023-05-07T12:31:45.101Z,5.43
2023-05-07T12:34:13.479Z,3.47
2023-05-07T12:36:42.016Z,6.95
2023-05-07T12:39:12.833Z,5.30
2023-05-07T12:41:59.992Z,4.55
2023-05-07T12:44:31.079Z,3.30
2023-05-07T12:46:58.283Z,4.82
2023-05-07T12:49:26.228Z,4.40
2023-05-07T12:51:53.311Z,7.00
2023-05-07T12:54:32.090Z,4.75
2023-05-07T12:57:04.959Z,3.72
2023-05-07T12:59:38.722Z,3.55
2023-05-07T13:02:07.379Z,7.13
2023-05-07T13:04:34.627Z,6.20
2023-05-07T13:07:04.234Z,7.50
2023-05-07T13:09:32.300Z,4.22
2023-05-07T13:12:02.504Z,5.80
2023-05-07T13:14:29.336Z,3.85
2023-05-07T13:16:57.823Z,4.93
2023-05-07T13:19:24.659Z,5.15
2023-05-07T13:21:51.304Z,4.25
2023-05-07T13:24:18.031Z,4.00
2023-05-07T13:26:46.018Z,4.55
2023-05-07T13:29:12.947Z,5.85
2023-05-07T13:31:44.321Z,4.25
2023-05-07T13:34:14.564Z,4.88
2023-05-07T13:36:42.853Z,6.40
2023-05-07T13:39:10.179Z,4.47
2023-05-07T13:41:36.857Z,4.35
2023-05-07T13:44:03.461Z,5.80
2023-05-07T13:46:31.148Z,4.15
2023-05-07T13:49:00.114Z,5.75
2023-05-07T13:51:26.954Z,4.50
2023-05-07T13:53:56.112Z,4.65
2023-05-07T13:56:25.288Z,6.13
2023-05-07T13:59:00.193Z,5.75
2023-05-07T14:01:27.618Z,5.32
2023-05-07T14:03:54.588Z,4.93
2023-05-07T14:06:21.835Z,6.80
2023-05-07T14:08:48.838Z,6.38
2023-05-07T14:11:15.935Z,4.80
2023-05-07T14:13:55.761Z,4.72
2023-05-07T14:16:24.166Z,4.65
2023-05-07T14:18:51.992Z,4.70
2023-05-07T14:21:18.877Z,5.28
2023-05-07T14:23:48.251Z,5.93
2023-05-07T14:26:15.457Z,4.53
2023-05-07T14:28:47.531Z,6.28
2023-05-07T14:31:14.166Z,4.80
2023-05-07T14:33:42.110Z,5.30
2023-05-07T14:36:08.933Z,3.85
2023-05-07T14:38:36.964Z,4.38
2023-05-07T14:41:06.873Z,5.00
2023-05-07T14:43:33.828Z,3.95
2023-05-07T14:46:00.970Z,5.82
2023-05-07T14:48:27.544Z,6.30
2023-05-07T14:50:55.901Z,5.43
2023-05-07T14:53:22.727Z,5.07
2023-05-07T14:55:50.161Z,6.45
2023-05-07T14:58:17.053Z,5.22
2023-05-07T15:00:44.741Z,5.15
2023-05-07T15:03:11.839Z,4.05
2023-05-07T15:05:38.670Z,4.90
2023-05-07T15:08:06.056Z,3.60
2023-05-07T15:10:35.033Z,3.95
2023-05-07T15:13:01.956Z,7.15
2023-05-07T15:15:29.696Z,5.40
2023-05-07T15:17:56.549Z,4.38
2023-05-07T15:20:23.382Z,6.03
2023-05-07T15:22:49.975Z,4.13
2023-05-07T15:25:17.352Z,7.47
2023-05-07T15:27:48.065Z,3.35
2023-05-07T15:30:16.000Z,3.45
2023-05-07T15:32:43.598Z,3.72
2023-05-07T15:35:13.165Z,5.63
2023-05-07T15:37:41.335Z,4.82
2023-05-07T15:40:09.885Z,5.05
2023-05-07T15:42:38.388Z,3.83
2023-05-07T15:45:06.549Z,7.90
2023-05-07T15:47:36.040Z,4.22
2023-05-07T15:50:03.581Z,4.40
2023-05-07T15:52:30.330Z,3.85
2023-05-07T15:54:57.404Z,4.55
2023-05-07T15:57:25.018Z,7.18
2023-05-07T15:59:51.878Z,3.97
2023-05-07T16:02:18.544Z,3.88
2023-05-07T16:04:45.053Z,5.50
2023-05-07T16:07:13.103Z,3.30
2023-05-07T16:09:40.609Z,5.38
2023-05-07T16:12:07.225Z,4.43
2023-05-07T16:14:34.090Z,3.42
2023-05-07T16:17:01.725Z,3.20
2023-05-07T16:19:29.792Z,5.60
2023-05-07T16:21:57.990Z,3.85
2023-05-07T16:24:24.792Z,5.28
2023-05-07T16:26:51.665Z,5.38
2023-05-07T16:29:18.443Z,4.22
2023-05-07T16:31:46.375Z,4.50
2023-05-07T16:34:14.343Z,3.67
2023-05-07T16:36:41.524Z,7.68
2023-05-07T16:39:09.482Z,5.75
2023-05-07T16:41:36.243Z,5.53
2023-05-07T16:44:06.260Z,4.53
2023-05-07T16:46:33.392Z,6.03
2023-05-07T16:49:00.160Z,4.45
2023-05-07T16:51:29.521Z,4.18
2023-05-07T16:53:56.117Z,4.00
2023-05-07T16:56:24.071Z,4.85
2023-05-07T16:58:54.828Z,4.22
2023-05-07T17:01:21.520Z,3.47
2023-05-07T17:03:48.154Z,4.28
2023-05-07T17:06:17.913Z,4.97
2023-05-07T17:08:44.761Z,4.80
2023-05-07T17:11:12.533Z,6.18
2023-05-07T17:13:39.067Z,4.20
2023-05-07T17:16:06.229Z,4.13
2023-05-07T17:18:33.837Z,4.38
2023-05-07T17:21:00.280Z,5.72
2023-05-07T17:23:31.464Z,6.45
2023-05-07T17:28:25.963Z,4.78
2023-05-07T17:30:52.754Z,4.95
2023-05-07T17:33:21.901Z,3.78
2023-05-07T17:35:52.432Z,4.60
2023-05-07T17:38:19.018Z,4.43
2023-05-07T17:40:45.782Z,4.38
2023-05-07T17:43:12.538Z,6.97
2023-05-07T17:45:39.346Z,7.05
2023-05-07T17:48:06.089Z,5.85
2023-05-07T17:50:32.607Z,3.95
2023-05-07T17:52:59.596Z,3.95
2023-05-07T17:55:26.492Z,4.43
2023-05-07T17:57:53.614Z,4.70
2023-05-07T18:00:20.422Z,4.80
2023-05-07T18:02:48.529Z,5.32
2023-05-07T18:05:15.061Z,5.82
2023-05-07T18:07:41.709Z,5.00
2023-05-07T18:10:11.678Z,4.10
2023-05-07T18:12:38.753Z,6.40
2023-05-07T18:15:05.984Z,6.50
2023-05-07T18:17:33.187Z,4.07
2023-05-07T18:20:05.001Z,4.22
2023-05-07T18:22:31.955Z,4.65
2023-05-07T18:24:58.508Z,6.25
2023-05-07T18:27:27.707Z,5.40
2023-05-07T18:29:54.276Z,4.97
2023-05-07T18:32:24.428Z,6.30
2023-05-07T18:34:51.035Z,4.97
2023-05-07T18:37:17.950Z,5.60
2023-05-07T18:39:44.801Z,3.72
2023-05-07T18:42:12.345Z,4.07
2023-05-07T18:44:40.414Z,4.65
2023-05-07T18:47:10.927Z,4.50
2023-05-07T18:49:37.505Z,5.32
2023-05-07T18:52:04.151Z,6.07
2023-05-07T18:54:30.888Z,4.32
2023-05-07T18:56:57.362Z,5.50
2023-05-07T18:59:23.810Z,7.25
2023-05-07T19:01:50.787Z,4.65
2023-05-07T19:04:18.301Z,5.30
2023-05-07T19:06:44.942Z,4.10
2023-05-07T19:09:12.421Z,3.97
2023-05-07T19:11:38.886Z,7.13
2023-05-07T19:14:05.542Z,5.55
2023-05-07T19:16:35.039Z,4.50
2023-05-07T19:19:02.958Z,7.50
2023-05-07T19:21:29.412Z,4.40
2023-05-07T19:23:57.653Z,5.30
2023-05-07T19:26:24.572Z,4.72
2023-05-07T19:29:06.674Z,4.22
2023-05-07T19:31:39.603Z,4.95
2023-05-07T19:34:06.087Z,5.05
2023-05-07T19:36:35.066Z,4.88
2023-05-07T19:39:01.516Z,5.35
2023-05-07T19:41:28.699Z,5.65
2023-05-07T19:43:55.416Z,4.93
2023-05-07T19:46:22.112Z,5.28
2023-05-07T19:48:49.017Z,6.57
2023-05-07T19:51:16.845Z,4.57
2023-05-07T19:53:45.054Z,4.85
2023-05-07T19:56:12.181Z,4.85
2023-05-07T19:58:43.521Z,7.85
2023-05-07T20:01:14.978Z,4.43
2023-05-07T20:03:47.852Z,5.03
2023-05-07T20:06:15.054Z,7.20
2023-05-07T20:08:43.269Z,4.63
2023-05-07T20:11:15.081Z,5.10
2023-05-07T20:13:45.909Z,6.50
2023-05-07T20:16:12.501Z,5.45
2023-05-07T20:18:39.408Z,6.38
2023-05-07T20:21:07.892Z,5.15
2023-05-07T20:23:37.134Z,6.47
2023-05-07T20:26:03.692Z,7.03
2023-05-07T20:28:30.193Z,7.85
2023-05-07T20:30:59.934Z,5.00
2023-05-07T20:33:26.984Z,4.88
2023-05-07T20:35:53.953Z,5.10
2023-05-07T20:38:20.542Z,7.72
2023-05-07T20:40:50.356Z,6.47
2023-05-07T20:43:18.398Z,9.95
2023-05-07T20:45:48.105Z,5.30
2023-05-07T20:48:14.996Z,5.63
2023-05-07T20:50:41.899Z,5.63
2023-05-07T20:53:08.563Z,6.00
2023-05-07T20:55:35.412Z,6.47
2023-05-07T20:58:01.931Z,6.47
2023-05-07T21:00:28.749Z,6.30
2023-05-07T21:02:56.399Z,6.75
2023-05-07T21:05:25.821Z,7.60
2023-05-07T21:07:53.786Z,6.82
2023-05-07T21:10:21.607Z,5.88
2023-05-07T21:12:51.046Z,6.50
2023-05-07T21:15:18.940Z,7.68
2023-05-07T21:17:45.883Z,7.03
2023-05-07T21:20:12.760Z,6.38
2023-05-07T21:22:42.240Z,7.43
2023-05-07T21:25:12.575Z,6.80
2023-05-07T21:27:39.916Z,7.93
2023-05-07T21:30:06.984Z,6.25
2023-05-07T21:32:33.730Z,6.82
2023-05-07T21:35:05.488Z,7.88
2023-05-07T21:37:31.933Z,7.22
2023-05-07T21:39:58.496Z,6.57
2023-05-07T21:42:25.486Z,9.68
2023-05-07T21:44:52.409Z,7.45
2023-05-07T21:47:24.308Z,8.65
2023-05-07T21:49:52.015Z,7.57
2023-05-07T21:52:18.773Z,8.45
2023-05-07T21:54:47.527Z,8.43
2023-05-07T21:57:17.914Z,7.40
2023-05-07T21:59:44.635Z,8.55
2023-05-07T22:02:11.473Z,6.82
2023-05-07T22:04:40.263Z,7.53
2023-05-07T22:07:07.021Z,8.73
2023-05-07T22:09:35.998Z,8.52
2023-05-07T22:12:03.725Z,7.25
2023-05-07T22:14:32.527Z,7.88
2023-05-07T22:16:59.167Z,9.80
2023-05-07T22:19:26.861Z,8.77
2023-05-07T22:21:53.436Z,10.57
2023-05-07T22:24:21.909Z,9.75
2023-05-07T22:26:49.031Z,7.70
2023-05-07T22:29:15.661Z,8.88
2023-05-07T22:31:45.217Z,10.57
2023-05-07T22:34:11.739Z,8.45
2023-05-07T22:36:38.521Z,8.30
2023-05-07T22:39:07.131Z,9.05
2023-05-07T22:41:33.641Z,8.48
2023-05-07T22:44:01.166Z,9.30
2023-05-07T22:46:28.099Z,8.32
2023-05-07T22:48:56.252Z,14.40
2023-05-07T22:51:22.841Z,8.70
2023-05-07T22:53:49.760Z,10.20
2023-05-07T22:56:16.246Z,7.88
2023-05-07T22:58:43.031Z,8.27
2023-05-07T23:01:14.280Z,8.25
2023-05-07T23:06:07.845Z,9.57
2023-05-07T23:08:36.356Z,8.23
2023-05-07T23:11:02.972Z,8.95
2023-05-07T23:13:29.550Z,8.80
2023-05-07T23:15:59.155Z,8.45
2023-05-07T23:18:27.956Z,8.40
2023-05-07T23:20:55.550Z,7.65
2023-05-07T23:23:23.571Z,8.43
2023-05-07T23:25:52.274Z,7.57
2023-05-07T23:28:23.049Z,7.65
2023-05-07T23:30:49.637Z,8.70
2023-05-07T23:33:16.202Z,8.25
2023-05-07T23:35:42.725Z,8.90
2023-05-07T23:38:13.750Z,8.98
2023-05-07T23:40:41.465Z,9.60
2023-05-07T23:43:08.589Z,9.13
2023-05-07T23:45:35.057Z,9.20
2023-05-07T23:48:02.630Z,8.57
2023-05-07T23:50:29.257Z,10.82
2023-05-07T23:52:56.469Z,8.77
2023-05-07T23:55:23.208Z,8.80
2023-05-07T23:57:49.701Z,8.95
